createdAt,value
2023-04-21T00:00:51.568Z,8.60
2023-04-21T00:03:22.146Z,8.60
2023-04-21T00:05:52.049Z,8.50
2023-04-21T00:08:21.087Z,8.50
2023-04-21T00:10:49.669Z,8.50
2023-04-21T00:13:18.298Z,8.50
2023-04-21T00:15:46.994Z,8.50
2023-04-21T00:18:17.940Z,8.50
2023-04-21T00:20:46.643Z,8.40
2023-04-21T00:23:15.240Z,8.40
2023-04-21T00:25:43.830Z,8.40
2023-04-21T00:28:12.501Z,8.40
2023-04-21T00:30:41.141Z,8.30
2023-04-21T00:33:09.832Z,8.30
2023-04-21T00:35:39.828Z,8.30
2023-04-21T00:38:08.506Z,8.30
2023-04-21T00:40:38.062Z,8.40
2023-04-21T00:43:07.756Z,8.30
2023-04-21T00:45:36.358Z,8.30
2023-04-21T00:48:05.210Z,8.40
2023-04-21T00:50:34.667Z,8.30
2023-04-21T00:53:05.091Z,8.30
2023-04-21T00:55:33.776Z,8.30
2023-04-21T00:58:04.787Z,8.20
2023-04-21T01:00:33.361Z,8.20
2023-04-21T01:03:02.886Z,8.30
2023-04-21T01:05:32.816Z,8.40
2023-04-21T01:08:03.947Z,8.20
2023-04-21T01:10:33.560Z,8.30
2023-04-21T01:13:02.180Z,8.30
2023-04-21T01:15:31.888Z,8.30
2023-04-21T01:18:01.199Z,8.30
2023-04-21T01:20:30.245Z,8.30
2023-04-21T01:23:01.477Z,8.30
2023-04-21T01:25:30.261Z,8.30
2023-04-21T01:27:58.884Z,8.30
2023-04-21T01:30:27.547Z,8.30
2023-04-21T01:32:58.777Z,8.30
2023-04-21T01:35:28.056Z,8.30
2023-04-21T01:37:56.674Z,8.30
2023-04-21T01:40:26.619Z,8.30
2023-04-21T01:42:55.849Z,8.30
2023-04-21T01:45:24.519Z,8.30
2023-04-21T01:47:53.139Z,8.30
2023-04-21T01:50:21.934Z,8.30
2023-04-21T01:52:50.696Z,8.30
2023-04-21T01:55:19.624Z,8.30
2023-04-21T01:57:49.596Z,8.30
2023-04-21T02:00:18.666Z,8.30
2023-04-21T02:02:47.290Z,8.30
2023-04-21T02:05:16.096Z,8.30
2023-04-21T02:07:44.748Z,8.30
2023-04-21T02:10:13.737Z,8.40
2023-04-21T02:12:44.730Z,8.40
2023-04-21T02:15:14.850Z,8.40
2023-04-21T02:17:45.023Z,8.40
2023-04-21T02:20:13.897Z,8.40
2023-04-21T02:22:42.572Z,8.40
2023-04-21T02:25:11.356Z,8.40
2023-04-21T02:27:40.956Z,8.40
2023-04-21T02:30:11.126Z,8.40
2023-04-21T02:32:41.553Z,8.40
2023-04-21T02:35:10.902Z,8.40
2023-04-21T02:37:39.822Z,8.40
2023-04-21T02:40:09.667Z,8.40
2023-04-21T02:42:38.297Z,8.40
2023-04-21T02:45:08.070Z,8.40
2023-04-21T02:47:37.759Z,8.40
2023-04-21T02:50:09.340Z,8.40
2023-04-21T02:52:38.602Z,8.40
2023-04-21T02:55:08.202Z,8.50
2023-04-21T02:57:36.772Z,8.40
2023-04-21T03:00:07.727Z,8.40
2023-04-21T03:02:36.456Z,8.50
2023-04-21T03:05:05.290Z,8.40
2023-04-21T03:07:35.343Z,8.50
2023-04-21T03:10:06.576Z,8.40
2023-04-21T03:12:35.541Z,8.50
2023-04-21T03:15:06.351Z,8.50
2023-04-21T03:17:36.816Z,8.50
2023-04-21T03:20:07.944Z,8.50
2023-04-21T03:22:38.572Z,8.50
2023-04-21T03:25:08.090Z,8.40
2023-04-21T03:27:37.473Z,8.50
2023-04-21T03:30:07.496Z,8.50
2023-04-21T03:32:36.364Z,8.50
2023-04-21T03:35:05.492Z,8.50
2023-04-21T03:37:34.053Z,8.50
2023-04-21T03:40:06.036Z,8.50
2023-04-21T03:42:34.663Z,8.50
2023-04-21T03:45:03.761Z,8.60
2023-04-21T03:47:35.356Z,8.40
2023-04-21T03:50:05.103Z,8.60
2023-04-21T03:52:33.845Z,8.40
2023-04-21T03:55:05.128Z,8.40
2023-04-21T03:57:33.742Z,8.40
2023-04-21T04:00:02.280Z,8.40
2023-04-21T04:02:41.467Z,8.40
2023-04-21T04:05:10.307Z,8.40
2023-04-21T04:07:38.923Z,8.40
2023-04-21T04:10:09.269Z,8.40
2023-04-21T04:12:37.973Z,8.40
2023-04-21T04:15:07.861Z,8.50
2023-04-21T04:17:36.459Z,8.40
2023-04-21T04:20:07.085Z,8.40
2023-04-21T04:22:36.451Z,8.40
2023-04-21T04:25:05.412Z,8.60
2023-04-21T04:27:35.541Z,8.40
2023-04-21T04:30:05.578Z,8.40
2023-04-21T04:32:34.524Z,8.40
2023-04-21T04:35:03.132Z,8.50
2023-04-21T04:37:31.784Z,8.40
2023-04-21T04:40:00.350Z,8.40
2023-04-21T04:42:29.016Z,8.40
2023-04-21T04:44:59.505Z,8.50
2023-04-21T04:47:28.164Z,8.50
2023-04-21T04:49:56.851Z,8.50
2023-04-21T04:52:25.576Z,8.70
2023-04-21T04:54:54.179Z,8.50
2023-04-21T04:57:22.680Z,8.50
2023-04-21T04:59:55.382Z,8.60
2023-04-21T05:02:25.901Z,8.60
2023-04-21T05:04:54.669Z,8.60
2023-04-21T05:07:23.316Z,8.60
2023-04-21T05:09:51.863Z,8.60
2023-04-21T05:12:20.515Z,8.60
2023-04-21T05:14:49.014Z,8.60
2023-04-21T05:17:17.667Z,8.70
2023-04-21T05:19:47.698Z,8.60
2023-04-21T05:22:16.313Z,8.60
2023-04-21T05:24:44.865Z,8.70
2023-04-21T05:27:13.416Z,8.70
2023-04-21T05:29:42.087Z,8.70
2023-04-21T05:32:12.346Z,8.70
2023-04-21T05:34:41.180Z,8.70
2023-04-21T05:37:11.729Z,8.70
2023-04-21T05:39:40.404Z,8.80
2023-04-21T05:42:11.219Z,8.80
2023-04-21T05:44:40.619Z,8.90
2023-04-21T05:47:09.248Z,8.90
2023-04-21T05:49:37.877Z,8.90
2023-04-21T05:52:06.545Z,8.90
2023-04-21T05:54:36.446Z,9.20
2023-04-21T05:57:05.814Z,9.10
2023-04-21T05:59:34.333Z,9.00
2023-04-21T06:02:03.956Z,9.10
2023-04-21T06:04:32.863Z,9.10
2023-04-21T06:07:06.955Z,9.10
2023-04-21T06:09:37.262Z,9.20
2023-04-21T06:12:06.292Z,9.30
2023-04-21T06:14:34.782Z,9.20
2023-04-21T06:17:03.326Z,9.20
2023-04-21T06:19:31.848Z,9.40
2023-04-21T06:22:00.415Z,9.30
2023-04-21T06:24:33.349Z,9.30
2023-04-21T06:27:03.268Z,9.40
2023-04-21T06:29:31.779Z,9.40
2023-04-21T06:32:00.320Z,9.60
2023-04-21T06:34:29.112Z,9.50
2023-04-21T06:36:57.635Z,9.40
2023-04-21T06:39:26.206Z,9.60
2023-04-21T06:41:55.121Z,9.70
2023-04-21T06:44:29.789Z,9.70
2023-04-21T06:46:58.451Z,9.80
2023-04-21T06:49:26.997Z,9.80
2023-04-21T06:51:55.566Z,9.90
2023-04-21T06:54:24.122Z,10.00
2023-04-21T06:56:52.629Z,10.20
2023-04-21T06:59:21.328Z,10.20
2023-04-21T07:01:52.380Z,10.60
2023-04-21T07:04:21.102Z,10.90
2023-04-21T07:06:49.713Z,11.50
2023-04-21T07:09:18.753Z,11.80
2023-04-21T07:11:47.548Z,12.10
2023-04-21T07:14:16.155Z,12.30
2023-04-21T07:16:44.721Z,12.70
2023-04-21T07:19:15.181Z,12.90
2023-04-21T07:21:43.740Z,12.90
2023-04-21T07:24:12.337Z,12.90
2023-04-21T07:26:40.929Z,12.80
2023-04-21T07:29:09.493Z,12.70
2023-04-21T07:31:38.182Z,12.50
2023-04-21T07:34:06.882Z,12.30
2023-04-21T07:36:38.138Z,12.30
2023-04-21T07:39:06.690Z,12.20
2023-04-21T07:41:35.383Z,12.30
2023-04-21T07:44:04.281Z,12.30
2023-04-21T07:46:32.962Z,12.40
2023-04-21T07:49:18.329Z,12.60
2023-04-21T07:51:48.579Z,12.70
2023-04-21T07:54:17.044Z,12.70
2023-04-21T07:56:45.530Z,12.60
2023-04-21T07:59:14.151Z,12.50
2023-04-21T08:01:42.684Z,12.50
2023-04-21T08:04:11.350Z,12.40
2023-04-21T08:06:40.194Z,12.40
2023-04-21T08:09:10.358Z,12.50
2023-04-21T08:11:39.004Z,12.50
2023-04-21T08:14:09.452Z,12.60
2023-04-21T08:16:38.552Z,12.80
2023-04-21T08:19:07.987Z,13.00
2023-04-21T08:21:36.833Z,13.20
2023-04-21T08:24:05.787Z,13.40
2023-04-21T08:26:36.295Z,13.40
2023-04-21T08:29:07.458Z,13.30
2023-04-21T08:31:36.205Z,13.20
2023-04-21T08:34:04.779Z,13.10
2023-04-21T08:36:33.457Z,13.00
2023-04-21T08:39:02.134Z,13.00
2023-04-21T08:41:30.741Z,12.90
2023-04-21T08:44:00.712Z,12.80
2023-04-21T08:46:29.421Z,12.90
2023-04-21T08:49:00.031Z,12.90
2023-04-21T08:51:30.220Z,12.90
2023-04-21T08:53:59.416Z,13.00
2023-04-21T08:56:28.328Z,13.00
2023-04-21T08:58:57.285Z,13.10
2023-04-21T09:01:27.301Z,13.10
2023-04-21T09:04:16.298Z,13.40
2023-04-21T09:06:46.209Z,13.60
2023-04-21T09:09:14.901Z,14.40
2023-04-21T09:11:43.414Z,15.30
2023-04-21T09:14:12.753Z,16.00
2023-04-21T09:16:44.904Z,16.40
2023-04-21T09:19:16.325Z,16.60
2023-04-21T09:21:48.005Z,16.60
2023-04-21T09:24:16.681Z,16.40
2023-04-21T09:26:45.298Z,16.20
2023-04-21T09:29:13.916Z,16.00
2023-04-21T09:31:45.653Z,15.80
2023-04-21T09:34:21.939Z,15.50
2023-04-21T09:36:50.469Z,15.50
2023-04-21T09:41:50.412Z,15.30
2023-04-21T09:44:19.278Z,15.30
2023-04-21T09:46:51.583Z,15.30
2023-04-21T09:49:22.079Z,15.30
2023-04-21T09:52:16.843Z,15.30
2023-04-21T09:54:47.706Z,15.30
2023-04-21T09:57:20.933Z,15.20
2023-04-21T09:59:55.936Z,15.20
2023-04-21T10:02:31.346Z,15.20
2023-04-21T10:05:00.502Z,15.40
2023-04-21T10:07:29.158Z,15.70
2023-04-21T10:09:59.171Z,16.10
2023-04-21T10:12:28.895Z,16.20
2023-04-21T10:14:58.056Z,16.30
2023-04-21T10:17:28.245Z,16.30
2023-04-21T10:19:59.001Z,16.30
2023-04-21T10:22:29.690Z,16.50
2023-04-21T10:24:59.992Z,16.60
2023-04-21T10:27:36.427Z,16.50
2023-04-21T10:30:20.814Z,16.40
2023-04-21T10:33:02.990Z,16.20
2023-04-21T10:35:59.724Z,16.10
2023-04-21T10:38:42.106Z,16.00
2023-04-21T10:41:29.376Z,15.80
2023-04-21T10:43:59.436Z,15.70
2023-04-21T10:46:35.307Z,15.70
2023-04-21T10:49:09.809Z,15.70
2023-04-21T10:52:09.836Z,15.60
2023-04-21T10:54:42.927Z,15.70
2023-04-21T10:57:13.112Z,15.80
2023-04-21T10:59:41.875Z,15.70
2023-04-21T11:02:13.493Z,15.60
2023-04-21T11:04:48.598Z,15.50
2023-04-21T11:07:19.933Z,15.50
2023-04-21T11:09:57.546Z,15.40
2023-04-21T11:12:29.166Z,15.30
2023-04-21T11:14:58.255Z,15.30
2023-04-21T11:17:27.286Z,15.50
2023-04-21T11:19:57.902Z,15.70
2023-04-21T11:22:27.591Z,16.00
2023-04-21T11:24:57.470Z,16.30
2023-04-21T11:27:29.772Z,16.50
2023-04-21T11:29:58.774Z,16.60
2023-04-21T11:32:27.484Z,16.70
2023-04-21T11:34:57.608Z,16.60
2023-04-21T11:37:28.041Z,16.60
2023-04-21T11:39:59.991Z,16.60
2023-04-21T11:42:29.335Z,16.70
2023-04-21T11:44:58.352Z,16.90
2023-04-21T11:47:28.438Z,17.00
2023-04-21T11:49:59.469Z,17.00
2023-04-21T11:52:29.758Z,17.10
2023-04-21T11:55:00.301Z,17.10
2023-04-21T11:57:29.889Z,17.10
2023-04-21T12:00:00.437Z,17.00
2023-04-21T12:02:31.393Z,17.10
2023-04-21T12:05:03.709Z,17.40
2023-04-21T12:07:33.189Z,17.90
2023-04-21T12:10:03.026Z,18.20
2023-04-21T12:12:32.377Z,18.20
2023-04-21T12:15:04.388Z,18.20
2023-04-21T12:17:38.599Z,18.10
2023-04-21T12:20:09.974Z,18.10
2023-04-21T12:22:38.648Z,18.30
2023-04-21T12:25:08.908Z,18.50
2023-04-21T12:27:37.509Z,18.80
2023-04-21T12:30:07.206Z,18.90
2023-04-21T12:32:35.793Z,18.90
2023-04-21T12:35:05.289Z,18.70
2023-04-21T12:37:35.288Z,18.40
2023-04-21T12:40:03.907Z,18.10
2023-04-21T12:42:33.837Z,17.90
2023-04-21T12:45:03.509Z,17.70
2023-04-21T12:47:32.122Z,17.80
2023-04-21T12:50:00.727Z,17.60
2023-04-21T12:52:29.317Z,17.50
2023-04-21T12:54:59.300Z,17.40
2023-04-21T12:57:27.848Z,17.20
2023-04-21T12:59:56.699Z,17.10
2023-04-21T13:02:25.358Z,16.90
2023-04-21T13:04:54.033Z,16.80
2023-04-21T13:07:26.707Z,16.80
2023-04-21T13:09:55.411Z,16.80
2023-04-21T13:12:25.317Z,17.00
2023-04-21T13:14:54.049Z,17.10
2023-04-21T13:17:22.681Z,17.00
2023-04-21T13:19:51.602Z,17.10
2023-04-21T13:22:20.284Z,17.00
2023-04-21T13:24:48.841Z,17.10
2023-04-21T13:27:17.356Z,17.20
2023-04-21T13:29:47.706Z,17.40
2023-04-21T13:32:16.441Z,17.70
2023-04-21T13:34:45.032Z,18.00
2023-04-21T13:37:16.124Z,18.10
2023-04-21T13:39:44.881Z,18.00
2023-04-21T13:42:13.405Z,17.90
2023-04-21T13:44:42.041Z,17.90
2023-04-21T13:47:12.202Z,17.90
2023-04-21T13:49:40.812Z,18.20
2023-04-21T13:52:09.684Z,18.80
2023-04-21T13:54:38.192Z,19.60
2023-04-21T13:57:07.014Z,20.30
2023-04-21T13:59:35.812Z,20.90
2023-04-21T14:02:04.570Z,21.40
2023-04-21T14:04:34.797Z,21.50
2023-04-21T14:07:03.882Z,21.50
2023-04-21T14:09:32.595Z,21.70
2023-04-21T14:12:02.403Z,21.60
2023-04-21T14:14:38.827Z,21.40
2023-04-21T14:17:08.545Z,21.20
2023-04-21T14:19:38.599Z,20.80
2023-04-21T14:22:07.243Z,20.50
2023-04-21T14:24:35.829Z,20.20
2023-04-21T14:27:04.493Z,19.90
2023-04-21T14:29:33.170Z,19.60
2023-04-21T14:32:01.915Z,19.30
2023-04-21T14:34:30.530Z,19.10
2023-04-21T14:37:01.010Z,18.80
2023-04-21T14:39:29.681Z,18.50
2023-04-21T14:41:58.275Z,18.40
2023-04-21T14:44:26.813Z,18.20
2023-04-21T14:47:08.439Z,18.00
2023-04-21T14:49:38.949Z,17.80
2023-04-21T14:52:09.309Z,17.70
2023-04-21T14:54:37.862Z,17.70
2023-04-21T14:57:19.780Z,17.80
2023-04-21T14:59:50.430Z,17.80
2023-04-21T15:02:19.881Z,18.00
2023-04-21T15:04:48.847Z,18.40
2023-04-21T15:07:23.885Z,18.90
2023-04-21T15:09:55.218Z,19.40
2023-04-21T15:12:23.921Z,20.00
2023-04-21T15:14:52.752Z,20.40
2023-04-21T15:17:21.397Z,20.60
2023-04-21T15:19:50.089Z,20.70
2023-04-21T15:22:20.265Z,20.70
2023-04-21T15:24:49.141Z,20.70
2023-04-21T15:27:17.712Z,20.50
2023-04-21T15:29:46.552Z,20.40
2023-04-21T15:32:15.483Z,20.50
2023-04-21T15:34:44.041Z,20.50
2023-04-21T15:37:12.743Z,20.70
2023-04-21T15:39:42.792Z,20.80
2023-04-21T15:42:11.335Z,21.00
2023-04-21T15:44:40.022Z,21.10
2023-04-21T15:47:08.598Z,21.10
2023-04-21T15:49:37.414Z,20.80
2023-04-21T15:52:06.977Z,20.60
2023-04-21T15:54:35.867Z,20.40
2023-04-21T15:57:06.473Z,20.30
2023-04-21T15:59:35.179Z,20.30
2023-04-21T16:02:04.433Z,20.10
2023-04-21T16:04:33.189Z,20.10
2023-04-21T16:07:01.960Z,20.10
2023-04-21T16:09:30.497Z,20.10
2023-04-21T16:11:59.157Z,20.20
2023-04-21T16:14:36.373Z,20.40
2023-04-21T16:17:15.509Z,20.50
2023-04-21T16:19:45.506Z,20.60
2023-04-21T16:22:14.167Z,20.70
2023-04-21T16:24:43.113Z,20.90
2023-04-21T16:27:11.818Z,21.00
2023-04-21T16:29:41.687Z,21.30
2023-04-21T16:32:11.437Z,21.30
2023-04-21T16:34:40.321Z,21.30
2023-04-21T16:37:09.231Z,21.20
2023-04-21T16:39:37.896Z,21.30
2023-04-21T16:42:06.591Z,21.20
2023-04-21T16:44:35.183Z,21.10
2023-04-21T16:47:05.335Z,21.10
2023-04-21T16:49:33.982Z,21.00
2023-04-21T16:52:02.625Z,20.90
2023-04-21T16:54:31.176Z,20.90
2023-04-21T16:56:59.803Z,20.80
2023-04-21T16:59:29.113Z,20.60
2023-04-21T17:01:58.785Z,20.50
2023-04-21T17:04:28.790Z,20.50
2023-04-21T17:06:57.483Z,20.50
2023-04-21T17:09:26.066Z,20.50
2023-04-21T17:11:54.632Z,20.30
2023-04-21T17:14:23.397Z,20.00
2023-04-21T17:16:52.190Z,19.60
2023-04-21T17:19:20.849Z,19.30
2023-04-21T17:21:50.713Z,19.00
2023-04-21T17:24:19.313Z,18.60
2023-04-21T17:26:47.968Z,18.40
2023-04-21T17:29:16.543Z,18.20
2023-04-21T17:31:45.370Z,18.00
2023-04-21T17:34:13.992Z,17.80
2023-04-21T17:36:44.599Z,17.70
2023-04-21T17:39:14.510Z,17.70
2023-04-21T17:41:46.185Z,17.60
2023-04-21T17:44:14.951Z,17.60
2023-04-21T17:46:44.195Z,17.60
2023-04-21T17:49:12.722Z,17.60
2023-04-21T17:51:41.532Z,17.60
2023-04-21T17:54:10.147Z,17.60
2023-04-21T17:56:40.795Z,17.60
2023-04-21T17:59:09.381Z,17.60
2023-04-21T18:01:38.107Z,17.60
2023-04-21T18:04:06.906Z,17.50
2023-04-21T18:06:35.774Z,17.30
2023-04-21T18:09:04.964Z,17.30
2023-04-21T18:11:33.638Z,17.20
2023-04-21T18:14:03.637Z,17.00
2023-04-21T18:16:32.309Z,16.70
2023-04-21T18:19:01.313Z,16.00
2023-04-21T18:21:30.045Z,15.20
2023-04-21T18:23:58.711Z,14.40
2023-04-21T18:26:27.622Z,13.80
2023-04-21T18:28:58.184Z,13.30
2023-04-21T18:31:28.854Z,12.90
2023-04-21T18:33:57.940Z,12.60
2023-04-21T18:36:28.676Z,12.40
2023-04-21T18:38:58.112Z,12.30
2023-04-21T18:41:27.690Z,12.10
2023-04-21T18:43:56.371Z,12.00
2023-04-21T18:46:25.061Z,12.00
2023-04-21T18:48:55.399Z,11.90
2023-04-21T18:51:24.068Z,11.80
2023-04-21T18:53:52.652Z,11.70
2023-04-21T18:56:21.165Z,11.70
2023-04-21T18:58:49.852Z,11.50
2023-04-21T19:01:18.649Z,11.40
2023-04-21T19:03:47.777Z,11.20
2023-04-21T19:06:18.079Z,11.20
2023-04-21T19:08:46.656Z,11.00
2023-04-21T19:11:16.485Z,10.90
2023-04-21T19:13:45.308Z,10.70
2023-04-21T19:16:14.625Z,10.50
2023-04-21T19:18:43.465Z,10.50
2023-04-21T19:21:13.645Z,10.40
2023-04-21T19:23:43.696Z,10.40
2023-04-21T19:26:13.569Z,10.20
2023-04-21T19:28:43.312Z,10.10
2023-04-21T19:31:11.985Z,10.00
2023-04-21T19:33:40.587Z,9.90
2023-04-21T19:36:09.643Z,9.80
2023-04-21T19:38:38.205Z,9.80
2023-04-21T19:41:08.171Z,9.70
2023-04-21T19:43:36.825Z,9.70
2023-04-21T19:46:05.731Z,9.60
2023-04-21T19:48:34.629Z,9.50
2023-04-21T19:51:03.324Z,9.50
2023-04-21T19:53:31.950Z,9.50
2023-04-21T19:56:01.268Z,9.50
2023-04-21T19:58:40.138Z,9.50
2023-04-21T20:01:09.607Z,9.50
2023-04-21T20:03:38.499Z,9.50
2023-04-21T20:06:07.555Z,9.50
2023-04-21T20:08:36.722Z,9.60
2023-04-21T20:11:05.533Z,9.80
2023-04-21T20:13:35.589Z,9.60
2023-04-21T20:16:04.341Z,9.70
2023-04-21T20:18:33.680Z,9.70
2023-04-21T20:21:02.406Z,9.80
2023-04-21T20:23:31.139Z,9.80
2023-04-21T20:25:59.763Z,9.90
2023-04-21T20:28:28.572Z,9.90
2023-04-21T20:30:58.625Z,9.90
2023-04-21T20:33:28.129Z,10.00
2023-04-21T20:35:56.988Z,10.00
2023-04-21T20:38:26.427Z,9.90
2023-04-21T20:40:55.078Z,9.90
2023-04-21T20:43:23.634Z,9.90
2023-04-21T20:45:52.294Z,10.00
2023-04-21T20:48:22.363Z,9.90
2023-04-21T20:50:51.525Z,10.00
2023-04-21T20:53:20.990Z,10.10
2023-04-21T20:55:49.861Z,10.10
2023-04-21T20:58:18.425Z,10.10
2023-04-21T21:00:47.124Z,10.10
2023-04-21T21:03:17.129Z,10.10
2023-04-21T21:05:47.796Z,10.10
2023-04-21T21:08:16.961Z,10.10
2023-04-21T21:10:45.501Z,10.10
2023-04-21T21:13:14.093Z,10.20
2023-04-21T21:15:42.728Z,10.20
2023-04-21T21:18:11.423Z,10.30
2023-04-21T21:20:40.286Z,10.30
2023-04-21T21:23:11.661Z,10.30
2023-04-21T21:25:40.358Z,10.40
2023-04-21T21:28:09.023Z,10.40
2023-04-21T21:30:37.953Z,10.40
2023-04-21T21:33:06.614Z,10.40
2023-04-21T21:35:35.760Z,10.30
2023-04-21T21:38:04.410Z,10.50
2023-04-21T21:40:34.426Z,10.40
2023-04-21T21:43:03.149Z,10.40
2023-04-21T21:45:31.840Z,10.40
2023-04-21T21:48:00.553Z,10.40
2023-04-21T21:50:29.728Z,10.20
2023-04-21T21:52:58.352Z,10.30
2023-04-21T21:55:28.114Z,10.30
2023-04-21T21:58:01.733Z,10.30
2023-04-21T22:00:30.610Z,10.30
2023-04-21T22:03:00.348Z,10.20
2023-04-21T22:05:29.254Z,10.20
2023-04-21T22:07:58.304Z,10.20
2023-04-21T22:10:27.080Z,10.10
2023-04-21T22:12:57.150Z,10.20
2023-04-21T22:15:25.777Z,10.20
2023-04-21T22:17:54.541Z,10.20
2023-04-21T22:20:23.281Z,10.30
2023-04-21T22:22:51.877Z,10.20
2023-04-21T22:25:26.732Z,10.20
2023-04-21T22:27:57.125Z,10.20
2023-04-21T22:30:26.260Z,10.10
2023-04-21T22:32:54.923Z,10.10
2023-04-21T22:35:23.448Z,10.00
2023-04-21T22:37:52.104Z,9.90
2023-04-21T22:40:20.726Z,9.80
2023-04-21T22:42:49.353Z,9.80
2023-04-21T22:45:19.546Z,9.70
2023-04-21T22:47:49.235Z,9.60
2023-04-21T22:50:17.925Z,9.50
2023-04-21T22:52:46.756Z,9.40
2023-04-21T22:55:15.663Z,9.30
2023-04-21T22:57:44.299Z,9.20
2023-04-21T23:00:13.562Z,9.10
2023-04-21T23:02:43.678Z,9.10
2023-04-21T23:05:12.305Z,9.00
2023-04-21T23:07:40.930Z,9.00
2023-04-21T23:10:09.865Z,8.90
2023-04-21T23:12:38.572Z,8.90
2023-04-21T23:15:08.339Z,8.80
2023-04-21T23:17:36.944Z,8.80
2023-04-21T23:20:08.507Z,8.70
2023-04-21T23:22:37.099Z,8.70
2023-04-21T23:25:06.489Z,8.60
2023-04-21T23:27:35.384Z,8.50
2023-04-21T23:30:04.211Z,8.50
2023-04-21T23:32:32.846Z,8.40
2023-04-21T23:35:01.451Z,8.40
2023-04-21T23:37:31.392Z,8.30
2023-04-21T23:39:59.891Z,8.30
2023-04-21T23:42:28.465Z,8.20
2023-04-21T23:44:57.042Z,8.20
2023-04-21T23:47:25.725Z,8.10
2023-04-21T23:49:54.866Z,8.10
2023-04-21T23:52:23.507Z,8.00
2023-04-21T23:54:53.464Z,8.00
2023-04-21T23:57:21.963Z,8.00
2023-04-21T23:59:50.518Z,8.00
